createdAt,value
2023-03-18T00:00:11.550Z,11.90
2023-03-18T00:02:39.387Z,11.90
2023-03-18T00:05:07.770Z,11.80
2023-03-18T00:07:36.180Z,11.60
2023-03-18T00:10:04.512Z,11.50
2023-03-18T00:12:32.369Z,11.30
2023-03-18T00:14:59.680Z,11.30
2023-03-18T00:17:26.729Z,11.20
2023-03-18T00:19:53.856Z,11.10
2023-03-18T00:22:20.494Z,11.10
2023-03-18T00:24:48.853Z,11.00
2023-03-18T00:27:15.606Z,10.90
2023-03-18T00:29:42.370Z,10.80
2023-03-18T00:32:09.036Z,10.70
2023-03-18T00:34:35.639Z,10.70
2023-03-18T00:37:02.233Z,10.50
2023-03-18T00:39:32.846Z,10.60
2023-03-18T00:42:01.888Z,10.50
2023-03-18T00:44:29.137Z,10.40
2023-03-18T00:46:55.767Z,10.40
2023-03-18T00:49:22.411Z,10.30
2023-03-18T00:51:49.527Z,10.20
2023-03-18T00:54:18.554Z,10.20
2023-03-18T00:56:45.402Z,10.20
2023-03-18T00:59:13.252Z,10.10
2023-03-18T01:01:40.326Z,10.00
2023-03-18T01:04:07.179Z,10.00
2023-03-18T01:06:36.453Z,9.90
2023-03-18T01:09:05.135Z,9.90
2023-03-18T01:11:33.245Z,9.80
2023-03-18T01:14:00.524Z,9.80
2023-03-18T01:16:27.885Z,9.70
2023-03-18T01:18:54.522Z,9.70
2023-03-18T01:21:22.247Z,9.60
2023-03-18T01:23:54.250Z,9.60
2023-03-18T01:26:22.048Z,9.60
2023-03-18T01:28:48.926Z,9.60
2023-03-18T01:31:16.265Z,9.60
2023-03-18T01:33:45.942Z,9.60
2023-03-18T01:36:12.664Z,9.60
2023-03-18T01:38:40.765Z,9.50
2023-03-18T01:41:13.068Z,9.50
2023-03-18T01:43:42.711Z,9.50
2023-03-18T01:46:33.301Z,9.50
2023-03-18T01:49:12.434Z,9.50
2023-03-18T01:51:42.481Z,9.50
2023-03-18T01:54:12.310Z,9.50
2023-03-18T01:56:41.288Z,9.50
2023-03-18T01:59:09.406Z,9.50
2023-03-18T02:01:43.781Z,9.50
2023-03-18T02:04:11.239Z,9.50
2023-03-18T02:06:41.136Z,9.50
2023-03-18T02:09:09.091Z,9.50
2023-03-18T02:11:39.424Z,9.60
2023-03-18T02:14:09.486Z,9.50
2023-03-18T02:16:51.020Z,9.60
2023-03-18T02:19:42.450Z,9.50
2023-03-18T02:22:19.009Z,9.50
2023-03-18T02:24:52.386Z,9.50
2023-03-18T02:27:26.327Z,9.50
2023-03-18T02:29:56.880Z,9.50
2023-03-18T02:32:28.253Z,9.50
2023-03-18T02:34:56.926Z,9.60
2023-03-18T02:37:23.742Z,9.60
2023-03-18T02:39:51.148Z,9.50
2023-03-18T02:42:29.681Z,9.60
2023-03-18T02:44:58.450Z,9.60
2023-03-18T02:47:48.921Z,9.60
2023-03-18T02:50:16.550Z,9.60
2023-03-18T02:52:43.411Z,9.60
2023-03-18T02:55:10.232Z,9.60
2023-03-18T02:57:37.166Z,9.70
2023-03-18T03:00:05.651Z,9.60
2023-03-18T03:02:33.043Z,9.60
2023-03-18T03:04:59.785Z,9.70
2023-03-18T03:07:27.828Z,9.70
2023-03-18T03:09:56.744Z,9.70
2023-03-18T03:12:24.381Z,9.70
2023-03-18T03:14:54.771Z,9.70
2023-03-18T03:17:21.864Z,9.80
2023-03-18T03:19:50.593Z,9.70
2023-03-18T03:22:20.189Z,9.80
2023-03-18T03:24:48.684Z,9.70
2023-03-18T03:27:15.574Z,9.70
2023-03-18T03:29:43.319Z,9.70
2023-03-18T03:32:10.029Z,9.70
2023-03-18T03:34:37.401Z,9.80
2023-03-18T03:37:04.145Z,9.70
2023-03-18T03:39:30.764Z,9.70
2023-03-18T03:41:57.411Z,9.80
2023-03-18T03:44:24.343Z,9.80
2023-03-18T03:46:51.425Z,9.80
2023-03-18T03:49:18.611Z,9.90
2023-03-18T03:51:45.270Z,9.90
2023-03-18T03:54:15.698Z,9.90
2023-03-18T03:56:42.930Z,10.00
2023-03-18T03:59:10.164Z,10.00
2023-03-18T04:01:55.714Z,9.90
2023-03-18T04:04:22.535Z,9.90
2023-03-18T04:06:49.370Z,9.80
2023-03-18T04:09:17.105Z,9.80
2023-03-18T04:11:44.747Z,9.90
2023-03-18T04:14:11.526Z,9.90
2023-03-18T04:16:38.160Z,9.90
2023-03-18T04:19:07.169Z,9.80
2023-03-18T04:21:34.819Z,9.70
2023-03-18T04:24:03.831Z,9.70
2023-03-18T04:26:31.142Z,9.60
2023-03-18T04:29:00.840Z,9.70
2023-03-18T04:31:28.402Z,9.70
2023-03-18T04:33:55.456Z,9.70
2023-03-18T04:36:22.528Z,9.60
2023-03-18T04:38:49.569Z,9.60
2023-03-18T04:41:16.281Z,9.60
2023-03-18T04:43:44.543Z,9.60
2023-03-18T04:46:12.059Z,9.50
2023-03-18T04:48:39.777Z,9.40
2023-03-18T04:51:09.226Z,9.40
2023-03-18T04:53:37.367Z,9.40
2023-03-18T04:56:05.126Z,9.40
2023-03-18T04:58:41.617Z,9.20
2023-03-18T05:01:13.160Z,9.30
2023-03-18T05:03:41.175Z,9.20
2023-03-18T05:06:09.394Z,9.30
2023-03-18T05:08:49.290Z,9.30
2023-03-18T05:11:16.076Z,9.40
2023-03-18T05:13:42.719Z,9.40
2023-03-18T05:16:11.217Z,9.60
2023-03-18T05:18:38.963Z,9.60
2023-03-18T05:21:07.849Z,9.70
2023-03-18T05:23:35.629Z,9.80
2023-03-18T05:26:03.335Z,9.80
2023-03-18T05:28:30.139Z,9.80
2023-03-18T05:31:17.442Z,9.80
2023-03-18T05:33:44.375Z,9.80
2023-03-18T05:36:13.166Z,9.90
2023-03-18T05:38:50.771Z,9.80
2023-03-18T05:41:17.546Z,9.80
2023-03-18T05:43:44.539Z,9.80
2023-03-18T05:46:12.713Z,9.80
2023-03-18T05:48:52.404Z,9.80
2023-03-18T05:51:20.548Z,9.90
2023-03-18T05:53:47.243Z,10.00
2023-03-18T05:56:20.388Z,10.00
2023-03-18T05:58:51.926Z,10.00
2023-03-18T06:01:42.039Z,10.00
2023-03-18T06:04:10.121Z,10.00
2023-03-18T06:06:40.324Z,10.10
2023-03-18T06:09:08.704Z,10.20
2023-03-18T06:11:36.898Z,10.20
2023-03-18T06:14:04.860Z,10.20
2023-03-18T06:16:32.754Z,10.30
2023-03-18T06:18:59.761Z,10.30
2023-03-18T06:21:27.408Z,10.40
2023-03-18T06:23:54.325Z,10.40
2023-03-18T06:26:22.272Z,10.40
2023-03-18T06:28:49.527Z,10.40
2023-03-18T06:31:17.571Z,10.50
2023-03-18T06:33:44.346Z,10.50
2023-03-18T06:36:16.391Z,10.60
2023-03-18T06:38:47.262Z,10.70
2023-03-18T06:41:14.633Z,10.70
2023-03-18T06:43:53.649Z,10.80
2023-03-18T06:46:20.333Z,10.80
2023-03-18T06:48:47.054Z,10.80
2023-03-18T06:51:18.713Z,10.70
2023-03-18T06:53:45.356Z,10.70
2023-03-18T06:56:15.807Z,10.60
2023-03-18T06:58:58.674Z,10.60
2023-03-18T07:01:26.856Z,10.70
2023-03-18T07:03:54.063Z,10.80
2023-03-18T07:06:21.616Z,11.00
2023-03-18T07:08:48.391Z,11.10
2023-03-18T07:11:16.617Z,11.20
2023-03-18T07:13:45.299Z,11.30
2023-03-18T07:16:25.542Z,11.30
2023-03-18T07:18:52.487Z,11.30
2023-03-18T07:21:19.639Z,11.40
2023-03-18T07:23:47.244Z,11.40
2023-03-18T07:26:14.591Z,11.40
2023-03-18T07:28:41.679Z,11.40
2023-03-18T07:31:08.666Z,11.40
2023-03-18T07:33:35.547Z,11.40
2023-03-18T07:36:02.269Z,11.50
2023-03-18T07:38:29.576Z,11.60
2023-03-18T07:40:56.745Z,11.60
2023-03-18T07:43:23.455Z,11.70
2023-03-18T07:45:50.040Z,11.80
2023-03-18T07:48:16.653Z,11.90
2023-03-18T07:50:43.233Z,12.00
2023-03-18T07:53:10.540Z,12.00
2023-03-18T07:55:37.238Z,12.10
2023-03-18T07:58:04.732Z,12.00
2023-03-18T08:00:32.296Z,12.00
2023-03-18T08:02:58.915Z,12.10
2023-03-18T08:05:25.585Z,12.10
2023-03-18T08:07:52.157Z,12.00
2023-03-18T08:10:19.391Z,12.00
2023-03-18T08:12:53.247Z,12.00
2023-03-18T08:15:24.640Z,12.10
2023-03-18T08:17:55.090Z,12.10
2023-03-18T08:20:22.952Z,12.20
2023-03-18T08:22:50.074Z,12.20
2023-03-18T08:25:17.089Z,12.30
2023-03-18T08:27:43.910Z,12.40
2023-03-18T08:30:11.750Z,12.40
2023-03-18T08:32:38.442Z,12.40
2023-03-18T08:35:05.603Z,12.40
2023-03-18T08:37:32.571Z,12.60
2023-03-18T08:39:59.232Z,12.70
2023-03-18T08:42:25.836Z,12.80
2023-03-18T08:44:52.407Z,12.70
2023-03-18T08:47:19.867Z,13.00
2023-03-18T08:49:46.539Z,13.10
2023-03-18T08:52:13.250Z,13.30
2023-03-18T08:54:39.852Z,13.50
2023-03-18T08:57:06.494Z,13.50
2023-03-18T08:59:33.224Z,13.40
2023-03-18T09:02:00.005Z,13.30
2023-03-18T09:04:26.607Z,13.10
2023-03-18T09:06:53.258Z,13.00
2023-03-18T09:09:20.642Z,13.00
2023-03-18T09:11:48.333Z,12.90
2023-03-18T09:14:15.005Z,12.80
2023-03-18T09:16:41.660Z,12.90
2023-03-18T09:19:08.279Z,12.90
2023-03-18T09:21:35.860Z,12.80
2023-03-18T09:24:02.579Z,12.90
2023-03-18T09:26:29.181Z,12.90
2023-03-18T09:28:55.915Z,12.90
2023-03-18T09:31:22.623Z,12.90
2023-03-18T09:33:49.424Z,12.90
2023-03-18T09:36:16.146Z,12.90
2023-03-18T09:38:43.715Z,12.90
2023-03-18T09:41:10.361Z,12.80
2023-03-18T09:43:58.606Z,12.80
2023-03-18T09:46:33.055Z,13.20
2023-03-18T09:49:28.335Z,13.90
2023-03-18T09:52:16.547Z,14.40
2023-03-18T09:55:12.495Z,14.50
2023-03-18T09:57:44.684Z,14.90
2023-03-18T10:00:36.825Z,14.80
2023-03-18T10:03:10.783Z,14.70
2023-03-18T10:05:50.923Z,14.60
2023-03-18T10:08:45.339Z,14.90
2023-03-18T10:11:48.637Z,15.20
2023-03-18T10:14:21.079Z,15.40
2023-03-18T10:17:16.956Z,15.10
2023-03-18T10:19:52.460Z,15.10
2023-03-18T10:22:27.733Z,14.90
2023-03-18T10:25:17.703Z,14.50
2023-03-18T10:28:16.741Z,14.20
2023-03-18T10:31:11.009Z,13.90
2023-03-18T10:34:08.356Z,13.90
2023-03-18T10:36:49.794Z,13.90
2023-03-18T10:39:20.923Z,14.00
2023-03-18T10:41:52.756Z,14.10
2023-03-18T10:44:22.008Z,14.20
2023-03-18T10:46:58.653Z,14.20
2023-03-18T10:49:49.306Z,14.30
2023-03-18T10:52:33.433Z,14.10
2023-03-18T10:55:00.197Z,14.30
2023-03-18T10:57:27.017Z,14.80
2023-03-18T10:59:53.957Z,15.30
2023-03-18T11:02:29.491Z,15.50
2023-03-18T11:05:07.143Z,15.60
2023-03-18T11:07:33.743Z,15.70
2023-03-18T11:10:17.971Z,15.50
2023-03-18T11:12:44.744Z,15.40
2023-03-18T11:15:12.852Z,15.70
2023-03-18T11:17:40.691Z,15.90
2023-03-18T11:20:43.945Z,16.10
2023-03-18T11:23:35.809Z,16.50
2023-03-18T11:26:02.843Z,16.60
2023-03-18T11:28:30.064Z,16.20
2023-03-18T11:30:58.368Z,15.50
2023-03-18T11:33:29.930Z,15.50
2023-03-18T11:36:05.460Z,15.70
2023-03-18T11:38:34.843Z,16.10
2023-03-18T11:41:22.888Z,16.30
2023-03-18T11:44:02.738Z,16.30
2023-03-18T11:46:37.542Z,16.60
2023-03-18T11:49:04.587Z,16.70
2023-03-18T11:52:02.313Z,16.30
2023-03-18T11:55:00.417Z,16.40
2023-03-18T11:58:05.680Z,16.50
2023-03-18T12:00:34.938Z,16.60
2023-03-18T12:03:31.406Z,16.50
2023-03-18T12:06:05.127Z,17.00
2023-03-18T12:09:06.853Z,17.20
2023-03-18T12:11:57.120Z,17.60
2023-03-18T12:14:48.055Z,17.90
2023-03-18T12:17:29.912Z,17.90
2023-03-18T12:20:24.223Z,17.80
2023-03-18T12:23:11.062Z,17.50
2023-03-18T12:25:53.940Z,17.40
2023-03-18T12:28:36.119Z,17.80
2023-03-18T12:31:37.143Z,17.50
2023-03-18T12:34:04.798Z,17.00
2023-03-18T12:36:50.006Z,17.00
2023-03-18T12:39:54.971Z,17.40
2023-03-18T12:42:49.131Z,17.10
2023-03-18T12:45:23.704Z,17.20
2023-03-18T12:48:07.797Z,17.30
2023-03-18T12:50:39.368Z,17.30
2023-03-18T12:53:16.096Z,17.10
2023-03-18T12:55:47.925Z,17.20
2023-03-18T12:58:29.407Z,17.30
2023-03-18T13:01:17.902Z,17.40
2023-03-18T13:04:10.118Z,17.60
2023-03-18T13:06:45.483Z,17.50
2023-03-18T13:09:25.412Z,18.20
2023-03-18T13:12:07.466Z,18.60
2023-03-18T13:14:58.727Z,18.90
2023-03-18T13:17:45.494Z,18.70
2023-03-18T13:20:37.724Z,18.50
2023-03-18T13:23:19.030Z,18.40
2023-03-18T13:26:07.027Z,18.20
2023-03-18T13:28:53.186Z,17.60
2023-03-18T13:31:22.432Z,17.40
2023-03-18T13:34:26.423Z,17.50
2023-03-18T13:37:27.480Z,17.70
2023-03-18T13:40:00.292Z,17.90
2023-03-18T13:42:28.697Z,18.00
2023-03-18T13:45:05.308Z,17.90
2023-03-18T13:47:34.822Z,18.00
2023-03-18T13:50:22.992Z,18.10
2023-03-18T13:52:53.829Z,18.20
2023-03-18T13:55:42.665Z,18.40
2023-03-18T13:58:25.898Z,18.30
2023-03-18T14:00:55.589Z,18.20
2023-03-18T14:03:29.847Z,17.90
2023-03-18T14:06:08.805Z,17.40
2023-03-18T14:08:38.345Z,17.40
2023-03-18T14:11:17.269Z,17.60
2023-03-18T14:14:00.505Z,17.80
2023-03-18T14:16:50.079Z,18.00
2023-03-18T14:19:32.400Z,17.80
2023-03-18T14:22:25.923Z,17.30
2023-03-18T14:25:17.619Z,17.00
2023-03-18T14:27:54.993Z,17.30
2023-03-18T14:30:34.540Z,17.30
2023-03-18T14:33:04.189Z,17.10
2023-03-18T14:35:47.632Z,17.10
2023-03-18T14:38:24.851Z,17.10
2023-03-18T14:40:54.398Z,16.90
2023-03-18T14:43:35.313Z,16.90
2023-03-18T14:46:06.978Z,17.10
2023-03-18T14:48:35.273Z,17.30
2023-03-18T14:51:16.979Z,17.40
2023-03-18T14:53:55.440Z,17.50
2023-03-18T14:56:24.734Z,17.50
2023-03-18T14:58:56.327Z,17.30
2023-03-18T15:01:28.270Z,17.00
2023-03-18T15:03:55.936Z,16.80
2023-03-18T15:06:25.616Z,16.60
2023-03-18T15:09:09.605Z,16.70
2023-03-18T15:11:45.356Z,16.60
2023-03-18T15:14:30.101Z,16.70
2023-03-18T15:17:00.846Z,16.80
2023-03-18T15:19:28.551Z,16.70
2023-03-18T15:21:58.054Z,16.80
2023-03-18T15:24:26.763Z,16.80
2023-03-18T15:27:01.788Z,16.80
2023-03-18T15:29:33.758Z,16.80
2023-03-18T15:32:16.422Z,17.00
2023-03-18T15:34:47.099Z,17.20
2023-03-18T15:37:32.185Z,17.60
2023-03-18T15:40:24.585Z,17.80
2023-03-18T15:42:54.469Z,18.00
2023-03-18T15:45:24.571Z,18.00
2023-03-18T15:47:51.913Z,18.00
2023-03-18T15:50:18.826Z,17.70
2023-03-18T15:52:47.259Z,17.50
2023-03-18T15:55:30.506Z,17.40
2023-03-18T15:57:58.500Z,17.30
2023-03-18T16:00:25.453Z,17.20
2023-03-18T16:02:52.447Z,17.10
2023-03-18T16:05:28.096Z,17.00
2023-03-18T16:07:55.220Z,16.90
2023-03-18T16:10:25.052Z,16.90
2023-03-18T16:13:01.553Z,16.80
2023-03-18T16:15:29.596Z,16.60
2023-03-18T16:17:56.669Z,16.60
2023-03-18T16:20:29.152Z,16.50
2023-03-18T16:22:56.949Z,16.40
2023-03-18T16:25:26.696Z,16.30
2023-03-18T16:27:58.696Z,16.00
2023-03-18T16:30:28.302Z,15.80
2023-03-18T16:32:55.499Z,15.50
2023-03-18T16:35:25.360Z,15.30
2023-03-18T16:37:53.063Z,15.10
2023-03-18T16:40:22.583Z,14.90
2023-03-18T16:42:49.804Z,14.70
2023-03-18T16:45:30.476Z,14.60
2023-03-18T16:48:03.114Z,14.40
2023-03-18T16:50:34.255Z,14.30
2023-03-18T16:53:02.220Z,14.10
2023-03-18T16:55:29.405Z,13.90
2023-03-18T16:57:59.612Z,13.80
2023-03-18T17:00:34.046Z,13.70
2023-03-18T17:03:01.522Z,13.40
2023-03-18T17:05:29.168Z,13.20
2023-03-18T17:07:56.111Z,12.90
2023-03-18T17:10:26.059Z,12.70
2023-03-18T17:12:57.347Z,12.50
2023-03-18T17:15:28.385Z,12.30
2023-03-18T17:17:58.091Z,12.20
2023-03-18T17:20:27.679Z,12.00
2023-03-18T17:22:55.466Z,11.90
2023-03-18T17:25:24.332Z,11.80
2023-03-18T17:27:55.893Z,11.80
2023-03-18T17:30:28.127Z,11.80
2023-03-18T17:32:55.360Z,11.70
2023-03-18T17:35:23.588Z,11.60
2023-03-18T17:37:50.410Z,11.60
2023-03-18T17:40:19.084Z,11.50
2023-03-18T17:42:47.323Z,11.50
2023-03-18T17:45:32.471Z,11.40
2023-03-18T17:48:19.951Z,11.40
2023-03-18T17:50:52.028Z,11.40
2023-03-18T17:53:41.607Z,11.50
2023-03-18T17:56:12.082Z,11.40
2023-03-18T17:58:45.552Z,11.50
2023-03-18T18:01:40.816Z,11.50
2023-03-18T18:04:13.205Z,11.60
2023-03-18T18:06:39.802Z,11.50
2023-03-18T18:09:07.807Z,11.50
2023-03-18T18:11:37.883Z,11.50
2023-03-18T18:14:26.735Z,11.50
2023-03-18T18:16:55.845Z,11.50
2023-03-18T18:19:22.790Z,11.50
2023-03-18T18:21:50.205Z,11.40
2023-03-18T18:24:23.827Z,11.30
2023-03-18T18:26:51.108Z,11.70
2023-03-18T18:29:21.319Z,11.70
2023-03-18T18:31:48.349Z,11.60
2023-03-18T18:34:15.407Z,11.40
2023-03-18T18:36:42.681Z,11.20
2023-03-18T18:39:09.350Z,11.10
2023-03-18T18:41:35.979Z,11.00
2023-03-18T18:44:03.208Z,10.90
2023-03-18T18:46:30.872Z,10.80
2023-03-18T18:48:57.781Z,10.80
2023-03-18T18:51:24.966Z,10.80
2023-03-18T18:53:53.666Z,10.80
2023-03-18T18:56:34.058Z,10.80
2023-03-18T18:59:01.599Z,10.80
2023-03-18T19:01:28.202Z,10.80
2023-03-18T19:03:55.522Z,10.70
2023-03-18T19:06:30.811Z,10.70
2023-03-18T19:09:00.566Z,10.70
2023-03-18T19:11:28.210Z,10.60
2023-03-18T19:14:00.781Z,10.60
2023-03-18T19:16:31.174Z,10.50
2023-03-18T19:18:59.048Z,10.40
2023-03-18T19:21:27.020Z,10.30
2023-03-18T19:23:54.121Z,10.30
2023-03-18T19:26:21.458Z,10.20
2023-03-18T19:28:57.726Z,10.20
2023-03-18T19:31:30.092Z,10.30
2023-03-18T19:33:59.302Z,10.30
2023-03-18T19:36:27.590Z,10.20
2023-03-18T19:38:57.073Z,10.10
2023-03-18T19:41:23.863Z,10.20
2023-03-18T19:43:51.240Z,10.30
2023-03-18T19:46:36.007Z,10.30
2023-03-18T19:49:03.825Z,10.30
2023-03-18T19:51:31.119Z,10.30
2023-03-18T19:53:57.882Z,10.40
2023-03-18T19:56:26.805Z,10.30
2023-03-18T19:58:56.990Z,10.30
2023-03-18T20:01:25.826Z,10.20
2023-03-18T20:03:57.048Z,10.30
2023-03-18T20:06:24.874Z,10.30
2023-03-18T20:08:51.646Z,10.30
2023-03-18T20:11:20.871Z,10.30
2023-03-18T20:13:48.185Z,10.40
2023-03-18T20:16:19.335Z,10.30
2023-03-18T20:18:46.198Z,10.40
2023-03-18T20:21:27.015Z,10.30
2023-03-18T20:23:55.557Z,10.30
2023-03-18T20:26:22.282Z,10.10
2023-03-18T20:28:53.707Z,10.00
2023-03-18T20:31:20.722Z,10.00
2023-03-18T20:33:47.477Z,9.80
2023-03-18T20:36:17.178Z,9.90
2023-03-18T20:38:47.406Z,9.80
2023-03-18T20:41:17.254Z,9.80
2023-03-18T20:43:45.517Z,9.80
2023-03-18T20:46:14.265Z,9.80
2023-03-18T20:48:41.546Z,9.80
2023-03-18T20:51:31.326Z,9.70
2023-03-18T20:53:58.048Z,9.80
2023-03-18T20:56:24.974Z,9.80
2023-03-18T20:58:51.711Z,9.80
2023-03-18T21:01:18.747Z,9.80
2023-03-18T21:03:45.863Z,9.80
2023-03-18T21:06:16.523Z,9.70
2023-03-18T21:08:43.584Z,9.70
2023-03-18T21:11:27.009Z,9.70
2023-03-18T21:13:53.665Z,9.70
2023-03-18T21:16:21.047Z,9.70
2023-03-18T21:18:49.489Z,9.70
2023-03-18T21:21:23.022Z,9.70
2023-03-18T21:23:49.913Z,9.80
2023-03-18T21:26:16.853Z,9.70
2023-03-18T21:28:43.472Z,9.70
2023-03-18T21:31:27.882Z,9.60
2023-03-18T21:33:55.294Z,9.50
2023-03-18T21:36:22.392Z,9.30
2023-03-18T21:38:49.653Z,9.20
2023-03-18T21:41:22.242Z,9.10
2023-03-18T21:43:49.724Z,9.10
2023-03-18T21:46:19.425Z,9.10
2023-03-18T21:48:46.402Z,9.00
2023-03-18T21:51:38.745Z,9.10
2023-03-18T21:54:12.302Z,9.00
2023-03-18T21:56:38.918Z,9.00
2023-03-18T21:59:05.601Z,8.90
2023-03-18T22:01:32.577Z,8.80
2023-03-18T22:03:59.527Z,8.80
2023-03-18T22:06:26.277Z,8.80
2023-03-18T22:08:52.996Z,8.80
2023-03-18T22:11:21.987Z,8.80
2023-03-18T22:13:49.279Z,8.80
2023-03-18T22:16:17.660Z,8.80
2023-03-18T22:18:46.267Z,8.80
2023-03-18T22:21:20.905Z,8.90
2023-03-18T22:23:47.586Z,8.90
2023-03-18T22:26:16.378Z,8.90
2023-03-18T22:28:44.086Z,8.90
2023-03-18T22:31:18.873Z,8.90
2023-03-18T22:33:46.520Z,8.80
2023-03-18T22:36:17.206Z,8.80
2023-03-18T22:38:44.073Z,8.80
2023-03-18T22:41:25.121Z,8.60
2023-03-18T22:43:51.748Z,8.50
2023-03-18T22:46:18.529Z,8.50
2023-03-18T22:48:45.501Z,8.50
2023-03-18T22:51:27.156Z,8.50
2023-03-18T22:53:54.588Z,8.50
2023-03-18T22:56:22.407Z,8.50
2023-03-18T22:58:49.530Z,8.40
2023-03-18T23:01:18.677Z,8.30
2023-03-18T23:03:46.754Z,8.30
2023-03-18T23:06:17.169Z,8.30
2023-03-18T23:08:45.543Z,8.20
2023-03-18T23:11:12.651Z,7.80
2023-03-18T23:13:41.498Z,7.80
2023-03-18T23:16:14.161Z,7.80
2023-03-18T23:18:40.813Z,7.80
2023-03-18T23:21:09.782Z,7.80
2023-03-18T23:23:36.690Z,7.90
2023-03-18T23:26:03.304Z,8.00
2023-03-18T23:28:29.953Z,8.10
2023-03-18T23:30:56.585Z,8.00
2023-03-18T23:33:23.214Z,8.00
2023-03-18T23:35:50.021Z,8.10
2023-03-18T23:38:16.700Z,8.20
2023-03-18T23:40:44.276Z,8.10
2023-03-18T23:43:11.036Z,8.10
2023-03-18T23:45:38.632Z,8.10
2023-03-18T23:48:06.138Z,8.10
2023-03-18T23:50:33.228Z,8.00
2023-03-18T23:53:00.415Z,8.10
2023-03-18T23:55:45.416Z,8.10
2023-03-18T23:58:12.131Z,8.10
